Archival Weather

South Haven Area Rgnl

South Haven, Michigan (KLWA)

Report from: Thursday, September 21, 2023 5:55 AM EDT
Current time: Tuesday, July 16, 2024 11:23 AM EDT

Current weather – Weather history – Daily summaries
Weather forecast

Temperature16.6°C (61.9°F)
Dew point14.2°C (57.6°F)
Winds Calm
Visibility10 mi. (16.1 km)
Clouds Sky clear
Altimeter30.17 in.Hg (1022 mB)
Relative humidity86 %
Density altitude129 ft. (39 m)
Remarks Fully automated report
Automated weather observing station with precipitation discriminator
Flight conditions Visual Meteorological Conditions
Raw dataKLWA 210955Z AUTO 00000KT 10SM CLR 17/14 A3017 RMK AO2 T01660142
An error has occurred. This application may no longer respond until reloaded. Reload 🗙